Main page
METAR-TAF:

METAR-TAF

Airports :

Isle of Man Airport

Isle of Man,

latitude: 54-05N, longitude: 004-38W, elevation: 17 m

Current weather observation

The report was made 44 minutes ago, at 07:20 UTC
Wind 18 kt from the South/Southwest
Temperature 7°C
Humidity 76%
Pressure 1030 hPa
Visibility 10 km or more
Few clouds at a height of 1800 ft

METAR: EGNS 080720Z 21018KT 9999 FEW018 07/03 Q1030 NOSIG

Time: 08:04 (08:04 UTC)

Forecast

The report was made 3 hours and 4 minutes ago, at 05:00 UTC
Forecast valid from 08 at 06 UTC to 08 at 15 UTC
Wind 24 kt from the South/Southwest
Visibility 10 km or more
Few clouds at a height of 800 ft
Broken clouds at a height of 1600 ft
Temporary
from 08 at 06 UTC to 08 at 15 UTC
Broken clouds at a height of 800 ft

TAF: EGNS 080500Z 0806/0815 20024KT 9999 FEW008 BKN016 TEMPO 0806/0815 BKN008

Weather observations and forecasts of more than 4000 airports (METAR and TAF reports).

The available stations are represented by yellow and red dots on the map.

Hover mouse over dot to see the name of the station.

Then click to see weather observations and forecasts.

To change the map : click on the green buttons with a black cross to zoom in, on the green button with a dash to zoom out, or on the green arrows for adjacent maps.


METAR-TAF: